createdAt,value
2022-12-26T00:00:20.243Z,98.400000
2022-12-26T00:05:22.995Z,99.000000
2022-12-26T00:10:25.840Z,99.333333
2022-12-26T00:15:29.538Z,100.000000
2022-12-26T00:20:30.908Z,103.333333
2022-12-26T00:25:33.303Z,110.000000
2022-12-26T00:30:35.954Z,113.000000
2022-12-26T00:35:18.413Z,119.000000
2022-12-26T00:40:21.629Z,119.800000
2022-12-26T00:45:24.141Z,121.000000
2022-12-26T00:50:32.626Z,119.000000
2022-12-26T00:55:29.354Z,115.000000
2022-12-26T01:00:31.611Z,123.666667
2022-12-26T01:05:34.790Z,141.000000
2022-12-26T01:10:17.147Z,139.666667
2022-12-26T01:15:20.216Z,137.000000
2022-12-26T01:20:22.835Z,139.500000
2022-12-26T01:25:25.409Z,144.000000
2022-12-26T01:30:28.529Z,165.000000
2022-12-26T01:35:30.695Z,207.000000
2022-12-26T01:40:33.745Z,206.666667
2022-12-26T01:45:35.863Z,206.000000
2022-12-26T01:50:18.127Z,184.000000
2022-12-26T01:55:20.984Z,151.000000
2022-12-26T02:00:23.579Z,163.500000
2022-12-26T02:05:25.983Z,186.000000
2022-12-26T02:10:28.806Z,180.333333
2022-12-26T02:15:31.553Z,169.000000
2022-12-26T02:20:34.935Z,167.666667
2022-12-26T02:25:18.568Z,165.000000
2022-12-26T02:30:20.607Z,166.600000
2022-12-26T02:35:24.071Z,169.000000
2022-12-26T02:40:26.604Z,169.333333
2022-12-26T02:45:29.679Z,170.000000
2022-12-26T02:50:33.965Z,169.666667
2022-12-26T02:55:35.491Z,169.000000
2022-12-26T03:00:17.973Z,173.000000
2022-12-26T03:05:20.538Z,179.000000
2022-12-26T03:10:23.602Z,179.357143
2022-12-26T03:15:26.532Z,180.000000
2022-12-26T03:20:29.078Z,185.666667
2022-12-26T03:25:31.637Z,197.000000
2022-12-26T03:30:34.166Z,196.333333
2022-12-26T03:35:16.749Z,195.000000
2022-12-26T03:40:20.962Z,195.800000
2022-12-26T03:45:22.176Z,197.000000
2022-12-26T03:50:24.771Z,196.000000
2022-12-26T03:55:26.979Z,194.000000
2022-12-26T04:00:29.868Z,196.666667
2022-12-26T04:05:32.992Z,202.000000
2022-12-26T04:10:35.542Z,198.666667
2022-12-26T04:15:18.449Z,192.000000
2022-12-26T04:20:22.005Z,188.000000
2022-12-26T04:25:50.098Z,182.000000
2022-12-26T04:30:26.599Z,183.666667
2022-12-26T04:35:29.345Z,187.000000
2022-12-26T04:40:32.370Z,191.000000
2022-12-26T04:45:36.205Z,199.000000
2022-12-26T04:50:17.581Z,195.333333
2022-12-26T04:55:20.391Z,188.000000
2022-12-26T05:00:22.911Z,185.142857
2022-12-26T05:05:25.410Z,180.000000
2022-12-26T05:10:28.149Z,177.333333
2022-12-26T05:15:30.583Z,172.000000
2022-12-26T05:20:34.130Z,170.333333
2022-12-26T05:25:15.996Z,167.000000
2022-12-26T05:30:19.097Z,164.200000
2022-12-26T05:35:22.055Z,160.000000
2022-12-26T05:40:24.309Z,156.071429
2022-12-26T05:45:27.403Z,149.000000
2022-12-26T05:50:29.799Z,150.333333
2022-12-26T05:55:32.682Z,153.000000
2022-12-26T06:00:35.381Z,156.666667
2022-12-26T06:05:17.982Z,164.000000
2022-12-26T06:10:20.568Z,158.800000
2022-12-26T06:15:23.623Z,151.000000
2022-12-26T06:20:26.303Z,158.000000
2022-12-26T06:25:28.900Z,172.000000
2022-12-26T06:30:31.465Z,168.000000
2022-12-26T06:35:34.552Z,160.000000
2022-12-26T06:40:17.269Z,166.333333
2022-12-26T06:45:20.225Z,179.000000
2022-12-26T06:50:23.718Z,167.928571
2022-12-26T06:55:26.344Z,148.000000
2022-12-26T07:00:29.035Z,148.333333
2022-12-26T07:05:32.842Z,149.000000
2022-12-26T07:10:16.496Z,150.000000
2022-12-26T07:15:18.568Z,152.000000
2022-12-26T07:20:21.191Z,154.800000
2022-12-26T07:25:23.741Z,159.000000
2022-12-26T07:30:26.744Z,156.000000
2022-12-26T07:35:29.377Z,150.000000
2022-12-26T07:40:33.057Z,149.666667
2022-12-26T07:45:36.095Z,149.000000
2022-12-26T07:50:17.162Z,151.000000
2022-12-26T07:55:21.028Z,155.000000
2022-12-26T08:00:22.984Z,157.142857
2022-12-26T08:05:25.815Z,161.000000
2022-12-26T08:10:28.311Z,163.333333
2022-12-26T08:15:31.151Z,168.000000
2022-12-26T08:20:34.060Z,169.000000
2022-12-26T08:25:20.007Z,171.000000
2022-12-26T08:30:19.576Z,169.000000
2022-12-26T08:35:22.330Z,166.000000
2022-12-26T08:40:42.082Z,163.666667
2022-12-26T08:45:27.949Z,159.000000
2022-12-26T08:50:32.534Z,162.333333
2022-12-26T08:55:34.556Z,169.000000
2022-12-26T09:00:16.845Z,172.666667
2022-12-26T09:05:19.927Z,180.000000
2022-12-26T09:10:23.011Z,177.500000
2022-12-26T09:15:26.208Z,173.000000
2022-12-26T09:20:28.634Z,173.000000
2022-12-26T09:25:31.413Z,173.000000
2022-12-26T09:30:34.132Z,173.333333
2022-12-26T09:35:16.763Z,174.000000
2022-12-26T09:40:19.259Z,173.600000
2022-12-26T09:45:21.632Z,173.000000
2022-12-26T09:50:24.458Z,173.000000
2022-12-26T09:55:26.931Z,173.000000
2022-12-26T10:00:30.001Z,173.000000
2022-12-26T10:05:33.451Z,173.000000
2022-12-26T10:10:16.550Z,173.666667
2022-12-26T10:15:19.439Z,175.000000
2022-12-26T10:20:21.994Z,178.200000
2022-12-26T10:25:27.526Z,183.000000
2022-12-26T10:30:27.131Z,177.000000
2022-12-26T10:35:29.772Z,165.000000
2022-12-26T10:40:32.508Z,165.333333
2022-12-26T10:45:35.026Z,166.000000
2022-12-26T10:50:20.276Z,169.333333
2022-12-26T10:55:29.373Z,176.000000
2022-12-26T11:00:23.229Z,174.928571
2022-12-26T11:05:48.816Z,173.000000
2022-12-26T11:10:27.689Z,176.333333
2022-12-26T11:15:30.589Z,183.000000
2022-12-26T11:20:34.005Z,185.666667
2022-12-26T11:25:16.647Z,191.000000
2022-12-26T11:30:19.441Z,193.400000
2022-12-26T11:35:21.856Z,197.000000
2022-12-26T11:40:25.335Z,197.714286
2022-12-26T11:45:29.356Z,199.000000
2022-12-26T11:50:31.217Z,195.666667
2022-12-26T11:55:33.786Z,189.000000
2022-12-26T12:00:16.212Z,188.666667
2022-12-26T12:05:19.089Z,188.000000
2022-12-26T12:10:22.169Z,196.000000
2022-12-26T12:15:25.387Z,208.000000
2022-12-26T12:20:27.832Z,205.333333
2022-12-26T12:25:30.559Z,200.000000
2022-12-26T12:30:33.277Z,199.666667
2022-12-26T12:35:36.002Z,199.000000
2022-12-26T12:40:18.387Z,195.000000
2022-12-26T12:45:20.967Z,189.000000
2022-12-26T12:50:23.553Z,188.642857
2022-12-26T12:55:26.303Z,188.000000
2022-12-26T13:00:29.082Z,183.333333
2022-12-26T13:05:32.273Z,174.000000
2022-12-26T13:10:35.256Z,175.666667
2022-12-26T13:15:18.266Z,179.000000
2022-12-26T13:20:20.992Z,171.800000
2022-12-26T13:25:23.602Z,161.000000
2022-12-26T13:30:26.735Z,170.000000
2022-12-26T13:35:29.738Z,188.000000
2022-12-26T13:40:32.727Z,179.333333
2022-12-26T13:45:35.906Z,162.000000
2022-12-26T13:50:18.356Z,162.400000
2022-12-26T13:55:21.483Z,163.000000
2022-12-26T14:00:24.431Z,164.071429
2022-12-26T14:05:27.138Z,166.000000
2022-12-26T14:10:30.599Z,179.333333
2022-12-26T14:15:34.223Z,206.000000
2022-12-26T14:20:16.085Z,200.000000
2022-12-26T14:25:18.724Z,188.000000
2022-12-26T14:30:21.293Z,206.800000
2022-12-26T14:35:24.258Z,235.000000
2022-12-26T14:40:26.403Z,221.333333
2022-12-26T14:45:29.030Z,194.000000
2022-12-26T14:50:32.812Z,197.333333
2022-12-26T14:55:34.278Z,204.000000
2022-12-26T15:00:16.852Z,210.666667
2022-12-26T15:05:19.259Z,224.000000
2022-12-26T15:10:22.125Z,229.600000
2022-12-26T15:15:24.376Z,238.000000
2022-12-26T15:20:27.462Z,236.333333
2022-12-26T15:25:29.490Z,233.000000
2022-12-26T15:30:31.963Z,235.000000
2022-12-26T15:35:34.139Z,239.000000
2022-12-26T15:40:16.968Z,233.666667
2022-12-26T15:45:26.132Z,223.000000
2022-12-26T15:50:22.450Z,235.857143
2022-12-26T15:55:24.858Z,259.000000
2022-12-26T16:00:28.079Z,250.666667
2022-12-26T16:05:31.719Z,234.000000
2022-12-26T16:10:34.830Z,230.333333
2022-12-26T16:15:18.384Z,223.000000
2022-12-26T16:20:20.846Z,212.200000
2022-12-26T16:25:23.515Z,196.000000
2022-12-26T16:30:25.568Z,191.333333
2022-12-26T16:35:29.407Z,182.000000
2022-12-26T16:40:31.331Z,171.333333
2022-12-26T16:45:34.384Z,150.000000
2022-12-26T16:50:16.110Z,147.333333
2022-12-26T16:55:19.642Z,142.000000
2022-12-26T17:00:22.155Z,140.571429
2022-12-26T17:05:24.931Z,138.000000
2022-12-26T17:10:27.378Z,134.333333
2022-12-26T17:15:30.373Z,127.000000
2022-12-26T17:20:33.055Z,123.666667
2022-12-26T17:25:35.298Z,117.000000
2022-12-26T17:30:18.188Z,115.400000
2022-12-26T17:35:20.886Z,113.000000
2022-12-26T17:40:23.357Z,107.285714
2022-12-26T17:45:26.586Z,97.000000
2022-12-26T17:50:29.039Z,100.000000
2022-12-26T17:55:31.650Z,106.000000
2022-12-26T18:00:34.347Z,100.333333
2022-12-26T18:05:16.905Z,89.000000
2022-12-26T18:10:19.618Z,89.800000
2022-12-26T18:15:23.018Z,91.000000
2022-12-26T18:20:25.726Z,92.000000
2022-12-26T18:25:27.935Z,94.000000
2022-12-26T18:30:32.237Z,91.333333
2022-12-26T18:35:34.621Z,86.000000
2022-12-26T18:40:16.170Z,87.000000
2022-12-26T18:45:19.574Z,89.000000
2022-12-26T18:50:24.136Z,88.642857
2022-12-26T18:55:26.086Z,88.000000
2022-12-26T19:00:29.159Z,86.333333
2022-12-26T19:05:32.143Z,83.000000
2022-12-26T19:10:36.301Z,80.333333
2022-12-26T19:15:17.705Z,75.000000
2022-12-26T19:20:20.381Z,76.600000
2022-12-26T19:25:22.706Z,79.000000
2022-12-26T19:30:27.051Z,71.000000
2022-12-26T19:35:28.942Z,55.000000
2022-12-26T19:40:31.392Z,53.333333
2022-12-26T19:45:35.631Z,50.000000
2022-12-26T19:50:17.310Z,50.000000
2022-12-26T19:55:20.055Z,50.000000
2022-12-26T20:00:22.996Z,50.000000
2022-12-26T20:05:27.358Z,50.000000
2022-12-26T20:10:30.275Z,48.666667
2022-12-26T20:15:33.626Z,46.000000
2022-12-26T20:20:17.130Z,44.333333
2022-12-26T20:25:22.080Z,41.000000
2022-12-26T20:30:25.418Z,47.428571
2022-12-26T20:35:28.758Z,59.000000
2022-12-26T20:40:31.591Z,60.666667
2022-12-26T20:45:34.528Z,64.000000
2022-12-26T20:50:16.831Z,62.000000
2022-12-26T20:55:19.603Z,58.000000
2022-12-26T21:00:22.557Z,60.500000
2022-12-26T21:05:25.176Z,65.000000
2022-12-26T21:10:27.719Z,65.000000
2022-12-26T21:15:30.388Z,65.000000
2022-12-26T21:20:33.415Z,63.666667
2022-12-26T21:25:15.977Z,61.000000
2022-12-26T21:30:19.832Z,58.200000
2022-12-26T21:35:21.910Z,54.000000
2022-12-26T21:40:25.868Z,55.071429
2022-12-26T21:45:28.446Z,57.000000
2022-12-26T21:50:32.029Z,55.666667
2022-12-26T21:55:34.147Z,53.000000
2022-12-26T22:00:17.107Z,55.333333
2022-12-26T22:05:20.368Z,60.000000
2022-12-26T22:10:23.256Z,60.714286
2022-12-26T22:15:26.026Z,62.000000
2022-12-26T22:20:28.748Z,60.333333
2022-12-26T22:25:31.506Z,57.000000
2022-12-26T22:30:36.822Z,57.666667
2022-12-26T22:35:18.962Z,59.000000
2022-12-26T22:40:20.385Z,57.400000
2022-12-26T22:45:23.358Z,55.000000
2022-12-26T22:50:25.991Z,58.666667
2022-12-26T22:55:29.734Z,66.000000
2022-12-26T23:00:33.010Z,64.666667
2022-12-26T23:05:36.078Z,62.000000
2022-12-26T23:10:19.572Z,62.400000
2022-12-26T23:15:21.074Z,63.000000
2022-12-26T23:20:24.342Z,63.000000
2022-12-26T23:25:27.079Z,63.000000
2022-12-26T23:30:29.763Z,65.000000
2022-12-26T23:35:32.881Z,69.000000
2022-12-26T23:40:35.901Z,68.333333
2022-12-26T23:45:19.461Z,67.000000
2022-12-26T23:50:22.909Z,70.214286
2022-12-26T23:55:26.325Z,76.000000
